Thunder radar more information blitzortung!


Radar de pluja more information rain snow radar


Visita la nostra xarxa de llocs de meteo:

Template documentation
and downloads

And another site



No particular awareness of the weather is required.    There are no Weather-warnings

Pagina Historial Weather Underground text

Diari Resum Octubre 18, 2017 Unitats:  Tant    Imperial   Mètric
« Previous Dia
SegĂźent Dia »
Diari Setmana Mensual Anual Personalitzada
  Maxima: Minima: Media:
Temperatura: 73.6 °F /  23.1 °C 57 °F /  13.9 °C 64.4 °F /  18 °C
Punt de rosada: 61.2 °F /  16.2 °C 50.7 °F /  10.4 °C 57 °F /  13.9 °C
Humitat: 95 % 59 % 78 %
Wind Speed: 11.5 mph /  18.5 km/h - 3.9 mph /  6.3 km/h
RĂ fegues de vent: 11.5 mph /  18.5 km/h - -
Vent:- - East
Pression baro: 30.1 in /  1017.8 hPa 29.8 in /  1010.0 hPa -
Precipitacions: 0.46 in /  11.7 mm    
Historical Graphs
 
 
Dades de taula per Octubre 18, 2017
Temps Temperatura Punt de rosada Pression baro Vent Wind Speed RĂ fegues de vent Humitat Rainfall Rate (Hourly)
00:05 61 °F /  16.1 °C 55.4 °F /  13.0 °C 30.1 in /  1017.8 hPa NE 1 mph /  1.6 km/h 3 mph /  4.8 km/h 82 % 0 in /  0.0 mm
00:15 61 °F /  16.1 °C 55.4 °F /  13.0 °C 30.1 in /  1017.8 hPa Calm   1 mph /  1.6 km/h 82 % 0 in /  0.0 mm
00:25 61.2 °F /  16.2 °C 55.6 °F /  13.1 °C 30.1 in /  1017.8 hPa Calm     82 % 0 in /  0.0 mm
00:35 61.2 °F /  16.2 °C 55.6 °F /  13.1 °C 30 in /  1016.8 hPa Calm     82 % 0 in /  0.0 mm
00:45 61.2 °F /  16.2 °C 55.6 °F /  13.1 °C 30 in /  1016.8 hPa Calm     82 % 0 in /  0.0 mm
00:55 61 °F /  16.1 °C 55.4 °F /  13.0 °C 30 in /  1016.8 hPa WNW 1 mph /  1.6 km/h 1 mph /  1.6 km/h 82 % 0 in /  0.0 mm
01:10 61 °F /  16.1 °C 55.4 °F /  13.0 °C 30 in /  1015.8 hPa WNW 1 mph /  1.6 km/h 1 mph /  1.6 km/h 82 % 0 in /  0.0 mm
01:20 61 °F /  16.1 °C 55.4 °F /  13.0 °C 30 in /  1015.8 hPa Calm   1 mph /  1.6 km/h 82 % 0 in /  0.0 mm
01:30 60.6 °F /  15.9 °C 55 °F /  12.8 °C 30 in /  1015.8 hPa Calm   2 mph /  3.2 km/h 82 % 0 in /  0.0 mm
01:40 60.4 °F /  15.8 °C 54.9 °F /  12.7 °C 30 in /  1015.8 hPa Calm     82 % 0 in /  0.0 mm
01:50 60.6 °F /  15.9 °C 55 °F /  12.8 °C 30 in /  1015.8 hPa South 1 mph /  1.6 km/h 1 mph /  1.6 km/h 82 % 0 in /  0.0 mm
02:00 60.6 °F /  15.9 °C 55.4 °F /  13.0 °C 30 in /  1015.8 hPa Calm     83 % 0 in /  0.0 mm
02:10 60.8 °F /  16.0 °C 55.6 °F /  13.1 °C 30 in /  1015.8 hPa Calm     83 % 0 in /  0.0 mm
02:20 60.8 °F /  16.0 °C 55.6 °F /  13.1 °C 30 in /  1015.8 hPa South 1 mph /  1.6 km/h 1 mph /  1.6 km/h 83 % 0 in /  0.0 mm
02:30 60.8 °F /  16.0 °C 55.6 °F /  13.1 °C 30 in /  1015.8 hPa SSE 1 mph /  1.6 km/h 1 mph /  1.6 km/h 83 % 0 in /  0.0 mm
02:40 60.6 °F /  15.9 °C 55.4 °F /  13.0 °C 30 in /  1015.8 hPa East 1 mph /  1.6 km/h 2 mph /  3.2 km/h 83 % 0 in /  0.0 mm
02:50 60.6 °F /  15.9 °C 55.4 °F /  13.0 °C 30 in /  1015.8 hPa Calm   1 mph /  1.6 km/h 83 % 0 in /  0.0 mm
03:00 60.4 °F /  15.8 °C 55.2 °F /  12.9 °C 30 in /  1015.8 hPa Calm     83 % 0 in /  0.0 mm
03:10 60.6 °F /  15.9 °C 55.8 °F /  13.2 °C 30 in /  1015.8 hPa West 1 mph /  1.6 km/h 2 mph /  3.2 km/h 84 % 0 in /  0.0 mm
03:20 60.4 °F /  15.8 °C 55.6 °F /  13.1 °C 30 in /  1015.8 hPa Calm     84 % 0 in /  0.0 mm
03:30 60.1 °F /  15.6 °C 55.2 °F /  12.9 °C 30 in /  1015.8 hPa ENE 2 mph /  3.2 km/h 2 mph /  3.2 km/h 84 % 0 in /  0.0 mm
03:40 59.7 °F /  15.4 °C 54.9 °F /  12.7 °C 30 in /  1015.8 hPa SSW 1 mph /  1.6 km/h 2 mph /  3.2 km/h 84 % 0 in /  0.0 mm
03:50 59.9 °F /  15.5 °C 55 °F /  12.8 °C 30 in /  1015.8 hPa Calm   1 mph /  1.6 km/h 84 % 0 in /  0.0 mm
04:00 60.4 °F /  15.8 °C 55.6 °F /  13.1 °C 30 in /  1015.8 hPa Calm   2 mph /  3.2 km/h 84 % 0 in /  0.0 mm
04:10 60.8 °F /  16.0 °C 56.3 °F /  13.5 °C 30 in /  1015.8 hPa ENE 1 mph /  1.6 km/h 2 mph /  3.2 km/h 85 % 0 in /  0.0 mm
04:20 61.5 °F /  16.4 °C 56.7 °F /  13.7 °C 30 in /  1015.8 hPa NE 2 mph /  3.2 km/h 3 mph /  4.8 km/h 84 % 0 in /  0.0 mm
04:30 62.2 °F /  16.8 °C 57.4 °F /  14.1 °C 30 in /  1015.8 hPa NE 1 mph /  1.6 km/h 2 mph /  3.2 km/h 84 % 0 in /  0.0 mm
04:40 63.1 °F /  17.3 °C 57.6 °F /  14.2 °C 30 in /  1015.8 hPa NE 1 mph /  1.6 km/h 2 mph /  3.2 km/h 82 % 0 in /  0.0 mm
04:50 64.2 °F /  17.9 °C 58.3 °F /  14.6 °C 30 in /  1015.8 hPa Calm   1 mph /  1.6 km/h 81 % 0 in /  0.0 mm
05:00 64.9 °F /  18.3 °C 58.3 °F /  14.6 °C 30 in /  1015.8 hPa East 1 mph /  1.6 km/h 2 mph /  3.2 km/h 79 % 0 in /  0.0 mm
05:10 64.6 °F /  18.1 °C 57.6 °F /  14.2 °C 30 in /  1015.8 hPa NE 1 mph /  1.6 km/h 2 mph /  3.2 km/h 78 % 0 in /  0.0 mm
05:20 64.4 °F /  18.0 °C 57.4 °F /  14.1 °C 30 in /  1015.8 hPa NNE 3 mph /  4.8 km/h 4 mph /  6.4 km/h 78 % 0 in /  0.0 mm
05:30 64.6 °F /  18.1 °C 57.6 °F /  14.2 °C 30 in /  1014.8 hPa NE 2 mph /  3.2 km/h 4 mph /  6.4 km/h 78 % 0 in /  0.0 mm
10:33 64.9 °F /  18.3 °C 57.9 °F /  14.4 °C 30 in /  1014.8 hPa East 2.9 mph /  4.7 km/h 2.9 mph /  4.7 km/h 78 % 0 in /  0.0 mm
10:34 64.9 °F /  18.3 °C 57.9 °F /  14.4 °C 30 in /  1014.8 hPa East 2.9 mph /  4.7 km/h 2.9 mph /  4.7 km/h 78 % 0 in /  0.0 mm
10:36 65.1 °F /  18.4 °C 58.1 °F /  14.5 °C 30 in /  1014.8 hPa NE 2.6 mph /  4.2 km/h 2.6 mph /  4.2 km/h 78 % 0 in /  0.0 mm
10:41 65.3 °F /  18.5 °C 58.3 °F /  14.6 °C 30 in /  1015.8 hPa ENE 4.6 mph /  7.4 km/h 4.6 mph /  7.4 km/h 78 % 0 in /  0.0 mm
10:46 65.7 °F /  18.7 °C 58.3 °F /  14.6 °C 30 in /  1015.8 hPa NNE 3.5 mph /  5.6 km/h 3.5 mph /  5.6 km/h 77 % 0 in /  0.0 mm
10:51 66.2 °F /  19.0 °C 58.5 °F /  14.7 °C 30 in /  1015.8 hPa NNE 2.3 mph /  3.7 km/h 2.3 mph /  3.7 km/h 76 % 0 in /  0.0 mm
10:56 67.1 °F /  19.5 °C 59.4 °F /  15.2 °C 30 in /  1014.8 hPa NW 2.3 mph /  3.7 km/h   76 % 0 in /  0.0 mm
11:01 68 °F /  20.0 °C 59.4 °F /  15.2 °C 30 in /  1014.8 hPa ESE 2.2 mph /  3.5 km/h 2.2 mph /  3.5 km/h 74 % 0 in /  0.0 mm
11:06 68.7 °F /  20.4 °C 60.1 °F /  15.6 °C 30 in /  1014.8 hPa ENE 2.4 mph /  3.9 km/h 2.4 mph /  3.9 km/h 74 % 0 in /  0.0 mm
11:11 69.3 °F /  20.7 °C 60.3 °F /  15.7 °C 30 in /  1015.8 hPa NNE 3.5 mph /  5.6 km/h 3.5 mph /  5.6 km/h 73 % 0 in /  0.0 mm
11:16 69.4 °F /  20.8 °C 60.1 °F /  15.6 °C 30 in /  1015.8 hPa East 3.3 mph /  5.3 km/h 3.3 mph /  5.3 km/h 72 % 0 in /  0.0 mm
11:21 69.6 °F /  20.9 °C 60.3 °F /  15.7 °C 30 in /  1015.8 hPa NNE 3.5 mph /  5.6 km/h 3.5 mph /  5.6 km/h 72 % 0 in /  0.0 mm
11:26 69.8 °F /  21.0 °C 60.1 °F /  15.6 °C 30 in /  1015.8 hPa ESE 4.3 mph /  6.9 km/h 4.3 mph /  6.9 km/h 71 % 0 in /  0.0 mm
11:27 69.6 °F /  20.9 °C 59.7 °F /  15.4 °C 30 in /  1015.8 hPa ENE 4.6 mph /  7.4 km/h 4.6 mph /  7.4 km/h 71 % 0 in /  0.0 mm
11:32 69.8 °F /  21.0 °C 60.4 °F /  15.8 °C 30 in /  1015.8 hPa ENE 4.6 mph /  7.4 km/h 4.6 mph /  7.4 km/h 72 % 0 in /  0.0 mm
11:37 69.8 °F /  21.0 °C 60.1 °F /  15.6 °C 30 in /  1015.8 hPa ESE 2.3 mph /  3.7 km/h 2.3 mph /  3.7 km/h 71 % 0 in /  0.0 mm
11:42 69.8 °F /  21.0 °C 59.5 °F /  15.3 °C 30 in /  1015.8 hPa East 5.8 mph /  9.3 km/h 5.8 mph /  9.3 km/h 70 % 0 in /  0.0 mm
11:47 70 °F /  21.1 °C 60.1 °F /  15.6 °C 30 in /  1015.8 hPa ENE 4.9 mph /  7.9 km/h 4.9 mph /  7.9 km/h 71 % 0 in /  0.0 mm
11:52 70.2 °F /  21.2 °C 60.3 °F /  15.7 °C 30 in /  1015.8 hPa ENE 4.6 mph /  7.4 km/h 4.6 mph /  7.4 km/h 71 % 0 in /  0.0 mm
11:57 70.3 °F /  21.3 °C 60.4 °F /  15.8 °C 30 in /  1014.8 hPa East 4.6 mph /  7.4 km/h 4.6 mph /  7.4 km/h 71 % 0 in /  0.0 mm
12:02 70.5 °F /  21.4 °C 60.3 °F /  15.7 °C 30 in /  1014.8 hPa ENE 2.3 mph /  3.7 km/h 2.3 mph /  3.7 km/h 70 % 0 in /  0.0 mm
12:07 70.2 °F /  21.2 °C 59.9 °F /  15.5 °C 30 in /  1014.8 hPa ESE 6.9 mph /  11.1 km/h 6.9 mph /  11.1 km/h 70 % 0 in /  0.0 mm
12:12 71.1 °F /  21.7 °C 60.4 °F /  15.8 °C 30 in /  1014.8 hPa ESE 5.8 mph /  9.3 km/h 5.8 mph /  9.3 km/h 69 % 0 in /  0.0 mm
12:17 71.2 °F /  21.8 °C 60.4 °F /  15.8 °C 30 in /  1014.8 hPa ESE 6 mph /  9.7 km/h 6 mph /  9.7 km/h 69 % 0 in /  0.0 mm
12:22 71.4 °F /  21.9 °C 61.2 °F /  16.2 °C 30 in /  1014.8 hPa East 4.6 mph /  7.4 km/h 4.6 mph /  7.4 km/h 70 % 0 in /  0.0 mm
12:27 72.3 °F /  22.4 °C 60.6 °F /  15.9 °C 30 in /  1014.8 hPa ESE 5.8 mph /  9.3 km/h 5.8 mph /  9.3 km/h 67 % 0 in /  0.0 mm
12:32 72.5 °F /  22.5 °C 60.4 °F /  15.8 °C 30 in /  1014.8 hPa ESE 6.9 mph /  11.1 km/h 6.9 mph /  11.1 km/h 66 % 0 in /  0.0 mm
12:37 72.1 °F /  22.3 °C 59.7 °F /  15.4 °C 30 in /  1014.8 hPa ENE 9.2 mph /  14.8 km/h 9.2 mph /  14.8 km/h 65 % 0 in /  0.0 mm
12:42 72.1 °F /  22.3 °C 59.4 °F /  15.2 °C 30 in /  1014.8 hPa ESE 8.1 mph /  13.0 km/h 8.1 mph /  13.0 km/h 64 % 0 in /  0.0 mm
12:47 72.7 °F /  22.6 °C 59.7 °F /  15.4 °C 30 in /  1014.8 hPa ESE 9.2 mph /  14.8 km/h 9.2 mph /  14.8 km/h 64 % 0 in /  0.0 mm
12:52 73 °F /  22.8 °C 59.7 °F /  15.4 °C 30 in /  1014.8 hPa ENE 8.1 mph /  13.0 km/h 8.1 mph /  13.0 km/h 63 % 0 in /  0.0 mm
12:57 72.9 °F /  22.7 °C 59.2 °F /  15.1 °C 29.9 in /  1013.8 hPa East 11.5 mph /  18.5 km/h 11.5 mph /  18.5 km/h 62 % 0 in /  0.0 mm
13:02 72.9 °F /  22.7 °C 59.2 °F /  15.1 °C 29.9 in /  1013.8 hPa ESE 10.4 mph /  16.7 km/h 10.4 mph /  16.7 km/h 62 % 0 in /  0.0 mm
13:07 72.9 °F /  22.7 °C 58.6 °F /  14.8 °C 29.9 in /  1013.8 hPa ESE 7.4 mph /  11.9 km/h 7.4 mph /  11.9 km/h 61 % 0 in /  0.0 mm
13:12 73.6 °F /  23.1 °C 59.4 °F /  15.2 °C 29.9 in /  1012.8 hPa ESE 9.2 mph /  14.8 km/h 9.2 mph /  14.8 km/h 61 % 0 in /  0.0 mm
13:17 72.9 °F /  22.7 °C 58.3 °F /  14.6 °C 29.9 in /  1012.8 hPa ESE 8.1 mph /  13.0 km/h 8.1 mph /  13.0 km/h 60 % 0 in /  0.0 mm
13:22 72.5 °F /  22.5 °C 57.7 °F /  14.3 °C 29.9 in /  1012.8 hPa ESE 4.6 mph /  7.4 km/h 4.6 mph /  7.4 km/h 60 % 0 in /  0.0 mm
13:27 72.7 °F /  22.6 °C 57.9 °F /  14.4 °C 29.9 in /  1013.8 hPa East 10.4 mph /  16.7 km/h 10.4 mph /  16.7 km/h 60 % 0 in /  0.0 mm
13:32 72.7 °F /  22.6 °C 57.9 °F /  14.4 °C 29.9 in /  1013.8 hPa East 9.2 mph /  14.8 km/h 9.2 mph /  14.8 km/h 60 % 0 in /  0.0 mm
13:37 72.5 °F /  22.5 °C 57.7 °F /  14.3 °C 29.9 in /  1013.8 hPa SE 8.5 mph /  13.7 km/h 8.5 mph /  13.7 km/h 60 % 0 in /  0.0 mm
13:42 72.7 °F /  22.6 °C 58.5 °F /  14.7 °C 30 in /  1014.8 hPa ESE 5.4 mph /  8.7 km/h 5.4 mph /  8.7 km/h 61 % 0 in /  0.0 mm
13:47 72.5 °F /  22.5 °C 57.7 °F /  14.3 °C 30 in /  1014.8 hPa ENE 10.4 mph /  16.7 km/h 10.4 mph /  16.7 km/h 60 % 0 in /  0.0 mm
13:52 72.3 °F /  22.4 °C 57.2 °F /  14.0 °C 30 in /  1014.8 hPa SE 9.2 mph /  14.8 km/h 9.2 mph /  14.8 km/h 59 % 0 in /  0.0 mm
13:57 72.3 °F /  22.4 °C 57.2 °F /  14.0 °C 30 in /  1014.8 hPa ESE 5.8 mph /  9.3 km/h 5.8 mph /  9.3 km/h 59 % 0 in /  0.0 mm
14:02 72 °F /  22.2 °C 56.8 °F /  13.8 °C 30 in /  1014.8 hPa ESE 8.1 mph /  13.0 km/h 8.1 mph /  13.0 km/h 59 % 0 in /  0.0 mm
14:07 71.8 °F /  22.1 °C 56.7 °F /  13.7 °C 30 in /  1014.8 hPa ESE 5.8 mph /  9.3 km/h 5.8 mph /  9.3 km/h 59 % 0 in /  0.0 mm
14:12 71.8 °F /  22.1 °C 56.7 °F /  13.7 °C 29.9 in /  1013.8 hPa ESE 5.8 mph /  9.3 km/h 5.8 mph /  9.3 km/h 59 % 0 in /  0.0 mm
14:17 71.8 °F /  22.1 °C 57 °F /  13.9 °C 29.9 in /  1013.8 hPa ESE 6.9 mph /  11.1 km/h 6.9 mph /  11.1 km/h 60 % 0 in /  0.0 mm
14:22 71.2 °F /  21.8 °C 57 °F /  13.9 °C 29.9 in /  1013.8 hPa ESE 7.6 mph /  12.2 km/h 7.6 mph /  12.2 km/h 61 % 0 in /  0.0 mm
14:27 71.1 °F /  21.7 °C 57.4 °F /  14.1 °C 29.9 in /  1013.8 hPa ENE 5.8 mph /  9.3 km/h 5.8 mph /  9.3 km/h 62 % 0 in /  0.0 mm
14:32 71.1 °F /  21.7 °C 57.7 °F /  14.3 °C 29.9 in /  1013.8 hPa ENE 5.9 mph /  9.5 km/h 5.9 mph /  9.5 km/h 63 % 0 in /  0.0 mm
14:37 70.9 °F /  21.6 °C 58.1 °F /  14.5 °C 29.9 in /  1013.8 hPa ENE 10.4 mph /  16.7 km/h 10.4 mph /  16.7 km/h 64 % 0 in /  0.0 mm
14:42 70.5 °F /  21.4 °C 58.3 °F /  14.6 °C 29.9 in /  1012.8 hPa ESE 10.4 mph /  16.7 km/h 10.4 mph /  16.7 km/h 65 % 0 in /  0.0 mm
14:47 70.3 °F /  21.3 °C 58.5 °F /  14.7 °C 29.9 in /  1012.8 hPa ESE 8.1 mph /  13.0 km/h 8.1 mph /  13.0 km/h 66 % 0 in /  0.0 mm
14:52 70.7 °F /  21.5 °C 58.8 °F /  14.9 °C 29.9 in /  1012.8 hPa NE 5.8 mph /  9.3 km/h 5.8 mph /  9.3 km/h 66 % 0 in /  0.0 mm
14:57 70.7 °F /  21.5 °C 58.8 °F /  14.9 °C 29.9 in /  1011.7 hPa ESE 5.8 mph /  9.3 km/h 5.8 mph /  9.3 km/h 66 % 0 in /  0.0 mm
15:02 70.7 °F /  21.5 °C 58.8 °F /  14.9 °C 29.9 in /  1011.7 hPa East 5.8 mph /  9.3 km/h 5.8 mph /  9.3 km/h 66 % 0 in /  0.0 mm
15:07 70.5 °F /  21.4 °C 58.3 °F /  14.6 °C 29.9 in /  1011.7 hPa SSE 8.1 mph /  13.0 km/h 8.1 mph /  13.0 km/h 65 % 0 in /  0.0 mm
15:12 70.5 °F /  21.4 °C 58.3 °F /  14.6 °C 29.9 in /  1011.7 hPa ENE 8.1 mph /  13.0 km/h 8.1 mph /  13.0 km/h 65 % 0 in /  0.0 mm
15:17 70.5 °F /  21.4 °C 58.3 °F /  14.6 °C 29.9 in /  1011.7 hPa ESE 8.1 mph /  13.0 km/h 8.1 mph /  13.0 km/h 65 % 0 in /  0.0 mm
15:22 70.5 °F /  21.4 °C 58.6 °F /  14.8 °C 29.9 in /  1011.7 hPa East 8.1 mph /  13.0 km/h 8.1 mph /  13.0 km/h 66 % 0 in /  0.0 mm
15:27 70.5 °F /  21.4 °C 58.6 °F /  14.8 °C 29.9 in /  1011.7 hPa SE 6.9 mph /  11.1 km/h 6.9 mph /  11.1 km/h 66 % 0 in /  0.0 mm
15:32 70.3 °F /  21.3 °C 57.9 °F /  14.4 °C 29.9 in /  1011.7 hPa ESE 7.6 mph /  12.2 km/h 7.6 mph /  12.2 km/h 65 % 0 in /  0.0 mm
15:37 70.2 °F /  21.2 °C 58.6 °F /  14.8 °C 29.9 in /  1011.7 hPa SE 8.1 mph /  13.0 km/h 8.1 mph /  13.0 km/h 67 % 0 in /  0.0 mm
15:42 70.2 °F /  21.2 °C 58.6 °F /  14.8 °C 29.9 in /  1011.7 hPa ENE 4.6 mph /  7.4 km/h 4.6 mph /  7.4 km/h 67 % 0 in /  0.0 mm
15:47 70 °F /  21.1 °C 58.5 °F /  14.7 °C 29.9 in /  1011.7 hPa East 5.8 mph /  9.3 km/h 5.8 mph /  9.3 km/h 67 % 0 in /  0.0 mm
15:52 70 °F /  21.1 °C 58.5 °F /  14.7 °C 29.9 in /  1011.7 hPa East 6.9 mph /  11.1 km/h 6.9 mph /  11.1 km/h 67 % 0 in /  0.0 mm
15:57 69.8 °F /  21.0 °C 58.8 °F /  14.9 °C 29.9 in /  1011.7 hPa ESE 4.6 mph /  7.4 km/h 4.6 mph /  7.4 km/h 68 % 0 in /  0.0 mm
16:02 69.8 °F /  21.0 °C 59.2 °F /  15.1 °C 29.9 in /  1011.7 hPa ENE 6.9 mph /  11.1 km/h 6.9 mph /  11.1 km/h 69 % 0 in /  0.0 mm
16:07 69.4 °F /  20.8 °C 59.2 °F /  15.1 °C 29.9 in /  1011.7 hPa ESE 6.9 mph /  11.1 km/h 6.9 mph /  11.1 km/h 70 % 0 in /  0.0 mm
16:12 68.9 °F /  20.5 °C 58.6 °F /  14.8 °C 29.9 in /  1011.7 hPa East 9.2 mph /  14.8 km/h 9.2 mph /  14.8 km/h 70 % 0 in /  0.0 mm
16:17 68.9 °F /  20.5 °C 59.2 °F /  15.1 °C 29.9 in /  1011.7 hPa ESE 9.7 mph /  15.6 km/h 9.7 mph /  15.6 km/h 71 % 0 in /  0.0 mm
16:22 68.9 °F /  20.5 °C 59.5 °F /  15.3 °C 29.9 in /  1011.7 hPa ESE 5.8 mph /  9.3 km/h 5.8 mph /  9.3 km/h 72 % 0 in /  0.0 mm
16:27 68.9 °F /  20.5 °C 59.5 °F /  15.3 °C 29.9 in /  1011.7 hPa ESE 6.9 mph /  11.1 km/h 6.9 mph /  11.1 km/h 72 % 0 in /  0.0 mm
16:32 68.9 °F /  20.5 °C 59.9 °F /  15.5 °C 29.9 in /  1011.7 hPa SE 3.5 mph /  5.6 km/h 3.5 mph /  5.6 km/h 73 % 0 in /  0.0 mm
16:37 68.7 °F /  20.4 °C 59.4 °F /  15.2 °C 29.9 in /  1011.7 hPa ESE 9.2 mph /  14.8 km/h 9.2 mph /  14.8 km/h 72 % 0 in /  0.0 mm
16:42 68.5 °F /  20.3 °C 59.2 °F /  15.1 °C 29.9 in /  1011.7 hPa ESE 10.4 mph /  16.7 km/h 10.4 mph /  16.7 km/h 72 % 0 in /  0.0 mm
16:43 68.5 °F /  20.3 °C 59.2 °F /  15.1 °C 29.9 in /  1011.7 hPa SE 10.4 mph /  16.7 km/h 10.4 mph /  16.7 km/h 72 % 0 in /  0.0 mm
16:48 68.4 °F /  20.2 °C 59 °F /  15.0 °C 29.9 in /  1011.7 hPa ESE 5.8 mph /  9.3 km/h 5.8 mph /  9.3 km/h 72 % 0 in /  0.0 mm
16:53 68.2 °F /  20.1 °C 59.2 °F /  15.1 °C 29.9 in /  1011.7 hPa ENE 5.8 mph /  9.3 km/h 5.8 mph /  9.3 km/h 73 % 0 in /  0.0 mm
16:58 68 °F /  20.0 °C 59 °F /  15.0 °C 29.9 in /  1011.7 hPa ESE 5.6 mph /  9.0 km/h 5.6 mph /  9.0 km/h 73 % 0 in /  0.0 mm
17:03 68 °F /  20.0 °C 59.4 °F /  15.2 °C 29.9 in /  1011.7 hPa ENE 8.1 mph /  13.0 km/h 8.1 mph /  13.0 km/h 74 % 0 in /  0.0 mm
17:08 68.2 °F /  20.1 °C 59.5 °F /  15.3 °C 29.9 in /  1011.7 hPa ESE 3.8 mph /  6.1 km/h 3.8 mph /  6.1 km/h 74 % 0 in /  0.0 mm
17:13 68.2 °F /  20.1 °C 59.5 °F /  15.3 °C 29.9 in /  1011.7 hPa East 5.4 mph /  8.7 km/h 5.4 mph /  8.7 km/h 74 % 0 in /  0.0 mm
17:18 68 °F /  20.0 °C 59.7 °F /  15.4 °C 29.9 in /  1011.7 hPa ESE 5.8 mph /  9.3 km/h 5.8 mph /  9.3 km/h 75 % 0 in /  0.0 mm
17:23 67.5 °F /  19.7 °C 59.5 °F /  15.3 °C 29.9 in /  1011.7 hPa ENE 5.8 mph /  9.3 km/h 5.8 mph /  9.3 km/h 76 % 0 in /  0.0 mm
17:28 67.1 °F /  19.5 °C 59.4 °F /  15.2 °C 29.8 in /  1010.7 hPa East 4.6 mph /  7.4 km/h 4.6 mph /  7.4 km/h 76 % 0 in /  0.0 mm
17:33 66.7 °F /  19.3 °C 59.4 °F /  15.2 °C 29.8 in /  1010.7 hPa NW 5.4 mph /  8.7 km/h 5.4 mph /  8.7 km/h 77 % 0 in /  0.0 mm
17:38 66.6 °F /  19.2 °C 59.2 °F /  15.1 °C 29.8 in /  1010.7 hPa ENE 2.9 mph /  4.7 km/h 2.9 mph /  4.7 km/h 77 % 0 in /  0.0 mm
17:43 66.4 °F /  19.1 °C 58.8 °F /  14.9 °C 29.8 in /  1010.0 hPa NNE 5.8 mph /  9.3 km/h 5.8 mph /  9.3 km/h 77 % 0 in /  0.0 mm
17:48 66.4 °F /  19.1 °C 58.8 °F /  14.9 °C 29.8 in /  1010.0 hPa ENE 5.8 mph /  9.3 km/h 5.8 mph /  9.3 km/h 77 % 0 in /  0.0 mm
17:53 66.2 °F /  19.0 °C 58.8 °F /  14.9 °C 29.8 in /  1010.0 hPa NE 4.3 mph /  6.9 km/h 4.3 mph /  6.9 km/h 77 % 0 in /  0.0 mm
17:58 66.2 °F /  19.0 °C 58.8 °F /  14.9 °C 29.8 in /  1010.7 hPa NNE 5.4 mph /  8.7 km/h 5.4 mph /  8.7 km/h 77 % 0 in /  0.0 mm
18:03 66.2 °F /  19.0 °C 58.8 °F /  14.9 °C 29.8 in /  1010.7 hPa NNE 4.6 mph /  7.4 km/h 4.6 mph /  7.4 km/h 77 % 0 in /  0.0 mm
18:08 66.2 °F /  19.0 °C 58.8 °F /  14.9 °C 29.8 in /  1010.7 hPa ENE 4.6 mph /  7.4 km/h 4.6 mph /  7.4 km/h 77 % 0 in /  0.0 mm
18:13 66.4 °F /  19.1 °C 58.8 °F /  14.9 °C 29.8 in /  1010.0 hPa East 4.3 mph /  6.9 km/h 4.3 mph /  6.9 km/h 77 % 0 in /  0.0 mm
18:18 66.2 °F /  19.0 °C 58.8 °F /  14.9 °C 29.8 in /  1010.0 hPa NNE 6.2 mph /  10.0 km/h 6.2 mph /  10.0 km/h 77 % 0 in /  0.0 mm
18:23 66.2 °F /  19.0 °C 58.8 °F /  14.9 °C 29.8 in /  1010.0 hPa East 1.6 mph /  2.6 km/h   77 % 0 in /  0.0 mm
18:28 66.4 °F /  19.1 °C 59.4 °F /  15.2 °C 29.8 in /  1010.0 hPa SE 4.6 mph /  7.4 km/h 4.6 mph /  7.4 km/h 78 % 0 in /  0.0 mm
18:33 66.4 °F /  19.1 °C 59.7 °F /  15.4 °C 29.8 in /  1010.0 hPa ENE 3.1 mph /  5.0 km/h 3.1 mph /  5.0 km/h 79 % 0 in /  0.0 mm
18:38 66.4 °F /  19.1 °C 59.7 °F /  15.4 °C 29.8 in /  1010.0 hPa SE 3.6 mph /  5.8 km/h 3.6 mph /  5.8 km/h 79 % 0 in /  0.0 mm
18:43 66.4 °F /  19.1 °C 60.1 °F /  15.6 °C 29.8 in /  1010.7 hPa SW 3.5 mph /  5.6 km/h 3.8 mph /  6.1 km/h 80 % 0 in /  0.0 mm
18:48 64 °F /  17.8 °C 56.7 °F /  13.7 °C 29.8 in /  1010.7 hPa SSW 10.4 mph /  16.7 km/h 10.4 mph /  16.7 km/h 77 % 0 in /  0.0 mm
18:53 61.7 °F /  16.5 °C 54.1 °F /  12.3 °C 29.8 in /  1010.7 hPa WSW 9.2 mph /  14.8 km/h 9.2 mph /  14.8 km/h 76 % 0 in /  0.0 mm
18:58 59.4 °F /  15.2 °C 52.2 °F /  11.2 °C 29.9 in /  1011.7 hPa SW 8.1 mph /  13.0 km/h 8.1 mph /  13.0 km/h 77 % 0.04 in /  1.0 mm
19:03 58.1 °F /  14.5 °C 51.3 °F /  10.7 °C 29.9 in /  1011.7 hPa SSW 5.9 mph /  9.5 km/h 5.9 mph /  9.5 km/h 78 % 0.13 in /  3.3 mm
19:08 57.6 °F /  14.2 °C 50.7 °F /  10.4 °C 29.9 in /  1011.7 hPa WSW 4.6 mph /  7.4 km/h 4.6 mph /  7.4 km/h 78 % 0.13 in /  3.3 mm
19:13 57.2 °F /  14.0 °C 50.7 °F /  10.4 °C 29.9 in /  1012.8 hPa SW 2.4 mph /  3.9 km/h 2.4 mph /  3.9 km/h 79 % 0.13 in /  3.3 mm
19:18 57.2 °F /  14.0 °C 51.1 °F /  10.6 °C 29.9 in /  1012.8 hPa West 2.3 mph /  3.7 km/h   80 % 0.13 in /  3.3 mm
19:23 57.2 °F /  14.0 °C 51.4 °F /  10.8 °C 29.9 in /  1012.8 hPa NW 2.3 mph /  3.7 km/h   81 % 0.13 in /  3.3 mm
19:28 57.2 °F /  14.0 °C 51.8 °F /  11.0 °C 29.9 in /  1012.8 hPa WSW 2.2 mph /  3.5 km/h 2.2 mph /  3.5 km/h 82 % 0.25 in /  6.3 mm
19:33 57.4 °F /  14.1 °C 52 °F /  11.1 °C 29.9 in /  1012.8 hPa WNW 1.2 mph /  1.9 km/h   82 % 0.25 in /  6.3 mm
19:38 57.6 °F /  14.2 °C 52.3 °F /  11.3 °C 29.9 in /  1012.8 hPa ENE 2.6 mph /  4.2 km/h 2.6 mph /  4.2 km/h 83 % 0.29 in /  7.4 mm
19:43 57.2 °F /  14.0 °C 52.2 °F /  11.2 °C 29.9 in /  1011.7 hPa NNE 3.5 mph /  5.6 km/h 3.5 mph /  5.6 km/h 83 % 0.29 in /  7.4 mm
19:48 57.2 °F /  14.0 °C 52.3 °F /  11.3 °C 29.9 in /  1011.7 hPa NE 2.3 mph /  3.7 km/h 2.3 mph /  3.7 km/h 84 % 0.29 in /  7.4 mm
19:53 57.2 °F /  14.0 °C 52.3 °F /  11.3 °C 29.9 in /  1011.7 hPa Calm     84 % 0.29 in /  7.4 mm
19:58 57.2 °F /  14.0 °C 52.7 °F /  11.5 °C 29.9 in /  1012.8 hPa Calm     85 % 0.25 in /  6.3 mm
20:03 57.4 °F /  14.1 °C 52.9 °F /  11.6 °C 29.9 in /  1012.8 hPa NE 2.3 mph /  3.7 km/h 2.3 mph /  3.7 km/h 85 % 0.16 in /  4.1 mm
20:08 57.4 °F /  14.1 °C 52.9 °F /  11.6 °C 29.9 in /  1012.8 hPa NNE 2.3 mph /  3.7 km/h 2.3 mph /  3.7 km/h 85 % 0.16 in /  4.1 mm
20:13 57 °F /  13.9 °C 52.5 °F /  11.4 °C 29.9 in /  1012.8 hPa NNE 5.8 mph /  9.3 km/h 5.8 mph /  9.3 km/h 85 % 0.16 in /  4.1 mm
20:18 57 °F /  13.9 °C 52.9 °F /  11.6 °C 29.9 in /  1012.8 hPa NNE 3.5 mph /  5.6 km/h 3.5 mph /  5.6 km/h 86 % 0.16 in /  4.1 mm
20:23 57 °F /  13.9 °C 52.9 °F /  11.6 °C 29.9 in /  1012.8 hPa NNE 5.8 mph /  9.3 km/h 5.8 mph /  9.3 km/h 86 % 0.16 in /  4.1 mm
20:28 57 °F /  13.9 °C 52.9 °F /  11.6 °C 29.9 in /  1012.8 hPa NNE 5.8 mph /  9.3 km/h 5.8 mph /  9.3 km/h 86 % 0.04 in /  1.0 mm
20:33 57 °F /  13.9 °C 53.2 °F /  11.8 °C 29.9 in /  1012.8 hPa NNE 3.3 mph /  5.3 km/h 3.3 mph /  5.3 km/h 87 % 0.04 in /  1.0 mm
20:38 57.2 °F /  14.0 °C 53.4 °F /  11.9 °C 29.9 in /  1012.8 hPa ENE 4.6 mph /  7.4 km/h 4.6 mph /  7.4 km/h 87 % 0 in /  0.0 mm
20:43 57 °F /  13.9 °C 53.2 °F /  11.8 °C 29.8 in /  1010.7 hPa NNE 5.8 mph /  9.3 km/h 5.8 mph /  9.3 km/h 87 % 0 in /  0.0 mm
20:48 57.2 °F /  14.0 °C 53.8 °F /  12.1 °C 29.8 in /  1010.7 hPa NNE 2.6 mph /  4.2 km/h 2.6 mph /  4.2 km/h 88 % 0 in /  0.0 mm
20:53 57.4 °F /  14.1 °C 54 °F /  12.2 °C 29.8 in /  1010.7 hPa Calm     88 % 0 in /  0.0 mm
20:58 57.6 °F /  14.2 °C 54.3 °F /  12.4 °C 29.9 in /  1011.7 hPa ENE 2.3 mph /  3.7 km/h 2.3 mph /  3.7 km/h 89 % 0 in /  0.0 mm
21:03 57.6 °F /  14.2 °C 54.3 °F /  12.4 °C 29.9 in /  1011.7 hPa ENE 3.5 mph /  5.6 km/h 3.5 mph /  5.6 km/h 89 % 0 in /  0.0 mm
21:08 57.6 °F /  14.2 °C 54.3 °F /  12.4 °C 29.9 in /  1011.7 hPa ENE 2.3 mph /  3.7 km/h 2.3 mph /  3.7 km/h 89 % 0 in /  0.0 mm
21:13 57.6 °F /  14.2 °C 54.3 °F /  12.4 °C 29.9 in /  1011.7 hPa NE 2.3 mph /  3.7 km/h 2.3 mph /  3.7 km/h 89 % 0 in /  0.0 mm
21:18 57.7 °F /  14.3 °C 54.5 °F /  12.5 °C 29.9 in /  1011.7 hPa NNE 1.4 mph /  2.3 km/h 1.4 mph /  2.3 km/h 89 % 0.17 in /  4.3 mm
21:23 57.9 °F /  14.4 °C 55 °F /  12.8 °C 29.9 in /  1011.7 hPa ENE 1.2 mph /  1.9 km/h   90 % 0.17 in /  4.3 mm
21:28 57.9 °F /  14.4 °C 55 °F /  12.8 °C 29.9 in /  1011.7 hPa NNE 1.2 mph /  1.9 km/h   90 % 0.17 in /  4.3 mm
21:33 57.9 °F /  14.4 °C 55 °F /  12.8 °C 29.9 in /  1011.7 hPa Calm     90 % 0.17 in /  4.3 mm
21:38 58.1 °F /  14.5 °C 55.2 °F /  12.9 °C 29.9 in /  1011.7 hPa Calm     90 % 0.17 in /  4.3 mm
21:43 58.1 °F /  14.5 °C 55.2 °F /  12.9 °C 29.9 in /  1011.7 hPa NNE 1.6 mph /  2.6 km/h   90 % 0.17 in /  4.3 mm
21:48 58.1 °F /  14.5 °C 55.2 °F /  12.9 °C 29.9 in /  1011.7 hPa NNE 2.3 mph /  3.7 km/h 2.3 mph /  3.7 km/h 90 % 0.17 in /  4.3 mm
21:53 58.1 °F /  14.5 °C 55.2 °F /  12.9 °C 29.9 in /  1011.7 hPa NNE 2.3 mph /  3.7 km/h 2.3 mph /  3.7 km/h 90 % 0.17 in /  4.3 mm
21:58 58.1 °F /  14.5 °C 55.2 °F /  12.9 °C 29.9 in /  1011.7 hPa NNE 3.5 mph /  5.6 km/h 3.5 mph /  5.6 km/h 90 % 0.17 in /  4.3 mm
22:03 58.1 °F /  14.5 °C 55.2 °F /  12.9 °C 29.9 in /  1011.7 hPa Calm     90 % 0.17 in /  4.3 mm
22:08 58.1 °F /  14.5 °C 55.6 °F /  13.1 °C 29.9 in /  1011.7 hPa Calm     91 % 0.17 in /  4.3 mm
22:13 58.1 °F /  14.5 °C 55.6 °F /  13.1 °C 29.9 in /  1011.7 hPa Calm     91 % 0.17 in /  4.3 mm
22:18 58.3 °F /  14.6 °C 55.8 °F /  13.2 °C 29.9 in /  1011.7 hPa ENE 2.3 mph /  3.7 km/h   91 % 0 in /  0.0 mm
22:23 58.1 °F /  14.5 °C 55.6 °F /  13.1 °C 29.9 in /  1011.7 hPa Calm     91 % 0 in /  0.0 mm
22:28 58.3 °F /  14.6 °C 55.8 °F /  13.2 °C 29.9 in /  1011.7 hPa Calm     91 % 0 in /  0.0 mm
22:33 58.3 °F /  14.6 °C 55.8 °F /  13.2 °C 29.9 in /  1011.7 hPa Calm     91 % 0 in /  0.0 mm
22:38 58.1 °F /  14.5 °C 55.6 °F /  13.1 °C 29.9 in /  1011.7 hPa Calm     91 % 0 in /  0.0 mm
22:43 58.1 °F /  14.5 °C 55.6 °F /  13.1 °C 29.9 in /  1011.7 hPa SW 1.6 mph /  2.6 km/h   91 % 0 in /  0.0 mm
22:48 58.3 °F /  14.6 °C 55.8 °F /  13.2 °C 29.9 in /  1011.7 hPa NNE 1.2 mph /  1.9 km/h 1.2 mph /  1.9 km/h 91 % 0 in /  0.0 mm
22:53 58.3 °F /  14.6 °C 55.9 °F /  13.3 °C 29.9 in /  1011.7 hPa ENE 2.3 mph /  3.7 km/h 2.3 mph /  3.7 km/h 92 % 0 in /  0.0 mm
22:58 58.1 °F /  14.5 °C 55.8 °F /  13.2 °C 29.8 in /  1010.7 hPa ESE 2.3 mph /  3.7 km/h 2.3 mph /  3.7 km/h 92 % 0 in /  0.0 mm
23:00 58.6 °F /  14.8 °C 56.8 °F /  13.8 °C 29.8 in /  1010.0 hPa NE 1 mph /  1.6 km/h 2 mph /  3.2 km/h 94 % 0 in /  0.0 mm
23:04 58.1 °F /  14.5 °C 55.8 °F /  13.2 °C 29.8 in /  1010.7 hPa East 1.4 mph /  2.3 km/h   92 % 0 in /  0.0 mm
23:09 58.1 °F /  14.5 °C 55.8 °F /  13.2 °C 29.8 in /  1010.7 hPa East 1.2 mph /  1.9 km/h 1.2 mph /  1.9 km/h 92 % 0 in /  0.0 mm
23:10 58.6 °F /  14.8 °C 56.8 °F /  13.8 °C 29.8 in /  1010.0 hPa NE 2 mph /  3.2 km/h 3 mph /  4.8 km/h 94 % 0 in /  0.0 mm
23:14 58.3 °F /  14.6 °C 55.9 °F /  13.3 °C 29.8 in /  1010.7 hPa Calm     92 % 0 in /  0.0 mm
23:19 58.3 °F /  14.6 °C 55.9 °F /  13.3 °C 29.8 in /  1010.7 hPa NNE 2.3 mph /  3.7 km/h 2.3 mph /  3.7 km/h 92 % 0 in /  0.0 mm
23:20 58.6 °F /  14.8 °C 56.8 °F /  13.8 °C 29.8 in /  1010.0 hPa NE 1 mph /  1.6 km/h 3 mph /  4.8 km/h 94 % 0 in /  0.0 mm
23:24 58.3 °F /  14.6 °C 55.9 °F /  13.3 °C 29.8 in /  1010.7 hPa ESE 2.4 mph /  3.9 km/h 2.4 mph /  3.9 km/h 92 % 0 in /  0.0 mm
23:29 58.3 °F /  14.6 °C 55.9 °F /  13.3 °C 29.9 in /  1011.7 hPa ESE 3.6 mph /  5.8 km/h 3.6 mph /  5.8 km/h 92 % 0 in /  0.0 mm
23:30 58.6 °F /  14.8 °C 57.2 °F /  14.0 °C 29.8 in /  1010.0 hPa Calm   1 mph /  1.6 km/h 95 % 0 in /  0.0 mm
23:34 58.3 °F /  14.6 °C 55.9 °F /  13.3 °C 29.9 in /  1011.7 hPa Calm     92 % 0 in /  0.0 mm
23:39 58.3 °F /  14.6 °C 55.9 °F /  13.3 °C 29.9 in /  1011.7 hPa Calm     92 % 0 in /  0.0 mm
23:40 58.8 °F /  14.9 °C 57.4 °F /  14.1 °C 29.8 in /  1010.0 hPa Calm     95 % 0.04 in /  1.0 mm
23:44 58.3 °F /  14.6 °C 55.9 °F /  13.3 °C 29.8 in /  1010.7 hPa Calm     92 % 0 in /  0.0 mm
23:49 58.3 °F /  14.6 °C 55.9 °F /  13.3 °C 29.8 in /  1010.7 hPa West 2.4 mph /  3.9 km/h 2.4 mph /  3.9 km/h 92 % 0 in /  0.0 mm
23:50 58.8 °F /  14.9 °C 57.4 °F /  14.1 °C 29.8 in /  1010.0 hPa NNE 2 mph /  3.2 km/h 4 mph /  6.4 km/h 95 % 0.04 in /  1.0 mm
23:54 58.3 °F /  14.6 °C 55.8 °F /  13.2 °C 29.8 in /  1010.7 hPa Calm     91 % 0 in /  0.0 mm
23:59 58.3 °F /  14.6 °C 55.9 °F /  13.3 °C 29.9 in /  1011.7 hPa Calm     92 % 0 in /  0.0 mm
Meteo Sesrovires
Elogis d' Weather Underground - 3.5 mb

Guio original per  Jim McMurry - jmcmurry@mwt.net Adaptat per a la plantilla per  Wim van der Kuil - Leuven-Template.eu

Trobareu la nostra informacio del temps tambe a:

Weather Underground

AWEKAS